Aviation Digital Data Service (ADDS)

Output produced by TAFs form (2353 UTC 19 October 2017)
found at http://aviationweather.gov/adds/tafs/
 
KRIL 192323Z 2000/2024 26011KT P6SM FEW120 BKN200 
     FM200300 17004KT P6SM SCT110 BKN150 
     FM201800 23010KT P6SM FEW080 FEW200 
     FM202000 23017G27KT P6SM FEW080 SCT200